createdAt,value
2018-03-23T00:00:42.304Z,3.90
2018-03-23T00:03:10.486Z,3.90
2018-03-23T00:05:39.477Z,3.90
2018-03-23T00:08:07.732Z,3.90
2018-03-23T00:10:35.923Z,4.00
2018-03-23T00:13:04.114Z,4.00
2018-03-23T00:15:32.346Z,4.10
2018-03-23T00:18:00.542Z,4.00
2018-03-23T00:20:29.081Z,4.00
2018-03-23T00:22:57.565Z,4.00
2018-03-23T00:25:25.729Z,3.90
2018-03-23T00:27:53.907Z,3.80
2018-03-23T00:30:22.245Z,3.80
2018-03-23T00:32:50.489Z,3.80
2018-03-23T00:35:18.682Z,3.70
2018-03-23T00:37:46.853Z,3.70
2018-03-23T00:40:15.099Z,3.80
2018-03-23T00:42:43.373Z,3.90
2018-03-23T00:45:11.574Z,3.90
2018-03-23T00:47:39.805Z,3.70
2018-03-23T00:50:08.003Z,3.70
2018-03-23T00:52:36.200Z,3.70
2018-03-23T00:55:04.500Z,3.60
2018-03-23T00:57:33.536Z,3.80
2018-03-23T01:00:01.740Z,3.70
2018-03-23T01:02:29.916Z,3.80
2018-03-23T01:04:58.113Z,3.70
2018-03-23T01:07:27.134Z,3.70
2018-03-23T01:09:55.342Z,3.70
2018-03-23T01:12:23.557Z,3.80
2018-03-23T01:14:52.531Z,3.80
2018-03-23T01:17:20.711Z,3.80
2018-03-23T01:19:48.931Z,3.80
2018-03-23T01:22:17.114Z,3.80
2018-03-23T01:24:45.442Z,3.90
2018-03-23T01:27:14.477Z,3.80
2018-03-23T01:29:42.697Z,3.80
2018-03-23T01:32:10.878Z,3.80
2018-03-23T01:34:39.859Z,3.80
2018-03-23T01:37:08.034Z,3.80
2018-03-23T01:39:36.237Z,3.90
2018-03-23T01:42:04.412Z,4.00
2018-03-23T01:44:33.402Z,3.90
2018-03-23T01:47:01.638Z,3.80
2018-03-23T01:49:29.839Z,3.80
2018-03-23T01:51:58.787Z,3.70
2018-03-23T01:54:26.976Z,3.70
2018-03-23T01:56:55.274Z,3.90
2018-03-23T01:59:23.446Z,3.90
2018-03-23T02:01:52.393Z,3.80
2018-03-23T02:04:20.620Z,3.80
2018-03-23T02:06:49.642Z,3.70
2018-03-23T02:09:17.848Z,3.60
2018-03-23T02:11:46.046Z,3.50
2018-03-23T02:14:14.992Z,3.50
2018-03-23T02:16:43.281Z,3.40
2018-03-23T02:19:11.448Z,3.50
2018-03-23T02:21:39.648Z,3.50
2018-03-23T02:24:08.000Z,3.50
2018-03-23T02:26:36.183Z,3.40
2018-03-23T02:29:04.355Z,3.30
2018-03-23T02:31:32.611Z,3.30
2018-03-23T02:34:00.852Z,3.40
2018-03-23T02:36:29.040Z,3.50
2018-03-23T02:38:57.239Z,3.50
2018-03-23T02:41:25.430Z,3.50
2018-03-23T02:43:53.709Z,3.50
2018-03-23T02:46:21.902Z,3.50
2018-03-23T02:48:50.873Z,3.30
2018-03-23T02:51:19.076Z,3.30
2018-03-23T02:53:47.274Z,3.30
2018-03-23T02:56:15.470Z,3.30
2018-03-23T02:58:43.696Z,3.20
2018-03-23T03:01:12.684Z,3.30
2018-03-23T03:03:41.691Z,3.30
2018-03-23T03:06:09.953Z,3.30
2018-03-23T03:08:38.912Z,3.40
2018-03-23T03:11:07.098Z,3.40
2018-03-23T03:13:35.303Z,3.40
2018-03-23T03:16:03.480Z,3.50
2018-03-23T03:18:31.658Z,3.60
2018-03-23T03:20:59.829Z,3.60
2018-03-23T03:23:28.013Z,3.60
2018-03-23T03:25:56.238Z,3.60
2018-03-23T03:28:24.464Z,3.60
2018-03-23T03:30:52.724Z,3.50
2018-03-23T03:33:20.943Z,3.50
2018-03-23T03:35:49.127Z,3.60
2018-03-23T03:38:17.416Z,3.60
2018-03-23T03:40:45.594Z,3.60
2018-03-23T03:43:13.843Z,3.60
2018-03-23T03:45:42.019Z,3.60
2018-03-23T03:48:10.355Z,3.60
2018-03-23T03:50:38.600Z,3.50
2018-03-23T03:53:07.557Z,3.50
2018-03-23T03:55:35.746Z,3.50
2018-03-23T03:58:03.929Z,3.40
2018-03-23T04:00:32.897Z,3.40
2018-03-23T04:03:01.076Z,3.40
2018-03-23T04:05:29.270Z,3.30
2018-03-23T04:07:57.479Z,3.40
2018-03-23T04:10:25.662Z,3.50
2018-03-23T04:12:53.880Z,3.50
2018-03-23T04:15:22.121Z,3.60
2018-03-23T04:17:50.322Z,3.60
2018-03-23T04:20:19.274Z,3.70
2018-03-23T04:22:47.489Z,3.70
2018-03-23T04:25:15.662Z,3.70
2018-03-23T04:27:44.613Z,3.60
2018-03-23T04:30:12.794Z,3.60
2018-03-23T04:32:40.992Z,3.60
2018-03-23T04:35:09.274Z,3.60
2018-03-23T04:37:37.458Z,3.50
2018-03-23T04:40:05.643Z,3.40
2018-03-23T04:42:34.586Z,3.50
2018-03-23T04:45:02.787Z,3.50
2018-03-23T04:47:30.971Z,3.50
2018-03-23T04:49:59.162Z,3.50
2018-03-23T04:52:28.139Z,3.60
2018-03-23T04:54:56.363Z,3.60
2018-03-23T04:57:24.597Z,3.60
2018-03-23T04:59:53.578Z,3.70
2018-03-23T05:02:22.630Z,3.60
2018-03-23T05:04:50.856Z,3.60
2018-03-23T05:07:19.915Z,3.60
2018-03-23T05:09:48.198Z,3.60
2018-03-23T05:12:16.434Z,3.70
2018-03-23T05:14:44.676Z,3.60
2018-03-23T05:17:13.614Z,3.50
2018-03-23T05:19:41.810Z,3.50
2018-03-23T05:22:10.786Z,3.50
2018-03-23T05:24:39.113Z,3.50
2018-03-23T05:27:08.098Z,3.50
2018-03-23T05:29:37.138Z,3.60
2018-03-23T05:32:05.331Z,3.60
2018-03-23T05:34:33.528Z,3.60
2018-03-23T05:37:01.784Z,3.60
2018-03-23T05:39:30.069Z,3.70
2018-03-23T05:41:58.367Z,3.60
2018-03-23T05:44:27.304Z,3.80
2018-03-23T05:46:55.481Z,3.80
2018-03-23T05:49:23.643Z,3.80
2018-03-23T05:51:51.870Z,3.80
2018-03-23T05:54:20.827Z,4.00
2018-03-23T05:56:49.005Z,3.90
2018-03-23T05:59:17.258Z,4.00
2018-03-23T06:01:45.449Z,4.00
2018-03-23T06:04:13.658Z,4.00
2018-03-23T06:06:42.664Z,4.00
2018-03-23T06:09:10.868Z,4.00
2018-03-23T06:11:39.106Z,4.10
2018-03-23T06:14:08.191Z,4.10
2018-03-23T06:16:37.167Z,4.20
2018-03-23T06:19:05.355Z,4.20
2018-03-23T06:21:33.665Z,4.20
2018-03-23T06:24:01.930Z,4.20
2018-03-23T06:26:30.199Z,4.20
2018-03-23T06:28:59.136Z,4.30
2018-03-23T06:31:27.327Z,4.30
2018-03-23T06:33:55.532Z,4.40
2018-03-23T06:36:24.499Z,4.50
2018-03-23T06:38:52.675Z,4.50
2018-03-23T06:41:20.946Z,4.40
2018-03-23T06:43:49.128Z,4.50
2018-03-23T06:46:17.421Z,4.60
2018-03-23T06:48:45.698Z,4.60
2018-03-23T06:51:13.879Z,4.60
2018-03-23T06:53:42.118Z,4.60
2018-03-23T06:56:10.445Z,4.70
2018-03-23T06:58:38.704Z,4.70
2018-03-23T07:01:06.954Z,4.70
2018-03-23T07:03:35.121Z,4.80
2018-03-23T07:06:03.278Z,4.80
2018-03-23T07:08:31.564Z,4.70
2018-03-23T07:10:59.842Z,4.80
2018-03-23T07:13:27.971Z,4.90
2018-03-23T07:15:56.205Z,4.90
2018-03-23T07:18:25.182Z,5.10
2018-03-23T07:20:53.356Z,5.10
2018-03-23T07:23:21.581Z,5.00
2018-03-23T07:25:49.762Z,5.10
2018-03-23T07:28:17.986Z,5.20
2018-03-23T07:30:46.951Z,4.90
2018-03-23T07:33:15.141Z,4.90
2018-03-23T07:35:43.327Z,4.50
2018-03-23T07:38:12.299Z,5.10
2018-03-23T07:40:40.487Z,5.10
2018-03-23T07:43:09.431Z,5.40
2018-03-23T07:45:37.663Z,5.40
2018-03-23T07:48:06.639Z,5.50
2018-03-23T07:50:34.864Z,5.50
2018-03-23T07:53:03.060Z,5.50
2018-03-23T07:55:31.281Z,5.70
2018-03-23T07:58:00.362Z,5.80
2018-03-23T08:00:28.617Z,5.80
2018-03-23T08:02:56.886Z,5.80
2018-03-23T08:05:25.194Z,5.90
2018-03-23T08:07:54.182Z,6.00
2018-03-23T08:10:29.385Z,6.00
2018-03-23T08:12:57.817Z,6.00
2018-03-23T08:15:26.386Z,6.00
2018-03-23T08:17:54.762Z,6.00
2018-03-23T08:20:28.434Z,6.00
2018-03-23T08:22:56.693Z,6.00
2018-03-23T08:25:24.952Z,6.00
2018-03-23T08:27:53.227Z,6.00
2018-03-23T08:30:21.552Z,6.00
2018-03-23T08:32:51.127Z,5.90
2018-03-23T08:35:19.307Z,5.90
2018-03-23T08:37:47.534Z,5.90
2018-03-23T08:40:15.795Z,5.90
2018-03-23T08:42:44.718Z,5.90
2018-03-23T08:45:13.046Z,5.90
2018-03-23T08:47:41.281Z,6.00
2018-03-23T08:50:09.548Z,6.00
2018-03-23T08:52:37.807Z,6.10
2018-03-23T08:55:06.907Z,6.30
2018-03-23T08:57:39.027Z,6.30
2018-03-23T09:00:07.493Z,6.20
2018-03-23T09:02:35.713Z,6.30
2018-03-23T09:05:03.887Z,6.30
2018-03-23T09:07:32.999Z,6.40
2018-03-23T09:10:01.226Z,6.30
2018-03-23T09:12:30.466Z,6.50
2018-03-23T09:14:58.789Z,6.50
2018-03-23T09:17:27.796Z,6.70
2018-03-23T09:19:56.077Z,6.70
2018-03-23T09:22:25.124Z,7.10
2018-03-23T09:24:53.458Z,7.10
2018-03-23T09:27:21.665Z,7.20
2018-03-23T09:29:49.842Z,7.20
2018-03-23T09:32:18.056Z,7.40
2018-03-23T09:34:46.281Z,7.50
2018-03-23T09:37:14.581Z,7.50
2018-03-23T09:39:43.496Z,7.60
2018-03-23T09:42:11.751Z,7.60
2018-03-23T09:44:40.002Z,7.70
2018-03-23T09:47:08.214Z,7.70
2018-03-23T09:49:36.388Z,7.70
2018-03-23T09:52:04.564Z,7.60
2018-03-23T09:54:32.950Z,7.50
2018-03-23T09:57:02.683Z,7.40
2018-03-23T09:59:34.864Z,7.30
2018-03-23T10:02:03.109Z,7.30
2018-03-23T10:04:31.505Z,7.50
2018-03-23T10:07:29.152Z,7.40
2018-03-23T10:09:59.565Z,7.30
2018-03-23T10:12:27.950Z,7.50
2018-03-23T10:14:57.090Z,7.70
2018-03-23T10:17:25.445Z,7.70
2018-03-23T10:19:53.799Z,7.60
2018-03-23T10:22:22.155Z,7.70
2018-03-23T10:24:50.519Z,7.70
2018-03-23T10:27:18.731Z,7.60
2018-03-23T10:29:47.763Z,7.70
2018-03-23T10:32:15.960Z,7.70
2018-03-23T10:34:44.268Z,7.70
2018-03-23T10:37:13.238Z,7.80
2018-03-23T10:39:41.517Z,7.70
2018-03-23T10:42:09.750Z,7.80
2018-03-23T10:44:37.977Z,7.90
2018-03-23T10:47:06.335Z,8.00
2018-03-23T10:49:34.597Z,8.00
2018-03-23T10:52:03.103Z,8.00
2018-03-23T10:54:31.297Z,8.10
2018-03-23T10:57:00.271Z,8.20
2018-03-23T10:59:28.550Z,8.20
2018-03-23T11:02:02.075Z,8.30
2018-03-23T11:05:05.103Z,8.30
2018-03-23T11:07:33.367Z,8.30
2018-03-23T11:10:01.559Z,8.20
2018-03-23T11:12:29.834Z,8.30
2018-03-23T11:14:58.050Z,8.40
2018-03-23T11:17:27.051Z,8.30
2018-03-23T11:19:55.695Z,8.20
2018-03-23T11:22:23.921Z,8.20
2018-03-23T11:24:52.226Z,8.30
2018-03-23T11:27:20.463Z,8.40
2018-03-23T11:29:49.513Z,8.80
2018-03-23T11:32:17.732Z,8.70
2018-03-23T11:34:45.919Z,8.80
2018-03-23T11:37:14.154Z,8.80
2018-03-23T11:39:43.163Z,8.90
2018-03-23T11:42:12.877Z,9.00
2018-03-23T11:44:41.118Z,9.10
2018-03-23T11:47:09.352Z,9.20
2018-03-23T11:49:37.733Z,9.30
2018-03-23T11:52:05.919Z,9.30
2018-03-23T11:54:34.139Z,9.40
2018-03-23T11:57:03.089Z,9.50
2018-03-23T11:59:31.311Z,9.40
2018-03-23T12:02:00.367Z,9.60
2018-03-23T12:04:29.600Z,9.60
2018-03-23T12:06:57.948Z,9.60
2018-03-23T12:09:26.167Z,9.60
2018-03-23T12:11:54.424Z,9.60
2018-03-23T12:14:23.674Z,9.60
2018-03-23T12:16:51.946Z,9.60
2018-03-23T12:19:20.257Z,9.50
2018-03-23T12:21:48.498Z,9.60
2018-03-23T12:24:16.727Z,9.60
2018-03-23T12:26:46.067Z,9.70
2018-03-23T12:29:14.291Z,9.70
2018-03-23T12:31:42.793Z,9.80
2018-03-23T12:34:11.116Z,9.90
2018-03-23T12:36:40.280Z,9.70
2018-03-23T12:39:08.634Z,9.70
2018-03-23T12:41:37.583Z,9.80
2018-03-23T12:44:05.833Z,9.80
2018-03-23T12:46:34.010Z,9.90
2018-03-23T12:49:03.021Z,9.80
2018-03-23T12:51:31.287Z,9.90
2018-03-23T12:53:59.504Z,10.00
2018-03-23T12:56:27.773Z,10.20
2018-03-23T12:58:56.074Z,10.10
2018-03-23T13:01:24.350Z,10.10
2018-03-23T13:03:52.545Z,10.10
2018-03-23T13:06:20.775Z,10.10
2018-03-23T13:08:48.966Z,10.00
2018-03-23T13:11:17.950Z,9.90
2018-03-23T13:13:47.666Z,9.80
2018-03-23T13:16:15.875Z,9.90
2018-03-23T13:18:44.127Z,9.90
2018-03-23T13:21:12.376Z,9.90
2018-03-23T13:23:41.380Z,9.70
2018-03-23T13:26:09.626Z,9.70
2018-03-23T13:28:37.836Z,9.60
2018-03-23T13:31:06.035Z,9.60
2018-03-23T13:33:34.559Z,9.60
2018-03-23T13:36:05.559Z,9.60
2018-03-23T13:38:33.873Z,9.70
2018-03-23T13:41:02.777Z,9.70
2018-03-23T13:43:31.732Z,9.80
2018-03-23T13:46:00.152Z,9.70
2018-03-23T13:48:28.495Z,9.80
2018-03-23T13:50:56.764Z,9.70
2018-03-23T13:53:25.025Z,9.70
2018-03-23T13:55:53.174Z,9.60
2018-03-23T13:58:21.538Z,9.50
2018-03-23T14:00:55.230Z,9.50
2018-03-23T14:03:24.311Z,9.40
2018-03-23T14:05:53.310Z,9.40
2018-03-23T14:08:21.571Z,9.30
2018-03-23T14:10:49.867Z,9.20
2018-03-23T14:13:18.942Z,9.20
2018-03-23T14:15:47.968Z,9.10
2018-03-23T14:18:16.285Z,9.30
2018-03-23T14:20:44.512Z,9.20
2018-03-23T14:23:13.695Z,9.20
2018-03-23T14:25:42.735Z,9.20
2018-03-23T14:28:10.892Z,9.20
2018-03-23T14:30:39.176Z,9.20
2018-03-23T14:33:07.372Z,9.20
2018-03-23T14:35:35.568Z,9.10
2018-03-23T14:38:04.873Z,9.10
2018-03-23T14:40:33.178Z,9.10
2018-03-23T14:43:01.637Z,9.20
2018-03-23T14:45:29.856Z,9.10
2018-03-23T14:47:58.118Z,9.20
2018-03-23T14:50:26.318Z,9.20
2018-03-23T14:52:54.564Z,9.20
2018-03-23T14:55:22.755Z,9.20
2018-03-23T14:57:50.974Z,9.20
2018-03-23T15:00:19.941Z,9.20
2018-03-23T15:02:48.122Z,9.20
2018-03-23T15:05:16.322Z,9.20
2018-03-23T15:07:45.269Z,9.20
2018-03-23T15:10:13.516Z,9.10
2018-03-23T15:12:41.741Z,9.20
2018-03-23T15:15:09.940Z,9.20
2018-03-23T15:17:38.141Z,9.20
2018-03-23T15:20:06.300Z,9.20
2018-03-23T15:22:34.496Z,9.20
2018-03-23T15:25:02.682Z,9.20
2018-03-23T15:27:30.988Z,9.00
2018-03-23T15:29:59.144Z,9.00
2018-03-23T15:32:27.318Z,9.10
2018-03-23T15:34:55.552Z,9.10
2018-03-23T15:37:24.700Z,9.20
2018-03-23T15:39:52.963Z,9.20
2018-03-23T15:42:21.126Z,9.10
2018-03-23T15:44:49.331Z,9.20
2018-03-23T15:47:18.402Z,9.30
2018-03-23T15:49:46.630Z,9.30
2018-03-23T15:52:14.950Z,9.30
2018-03-23T15:54:43.195Z,9.30
2018-03-23T15:57:11.400Z,9.30
2018-03-23T15:59:39.614Z,9.30
2018-03-23T16:02:08.599Z,9.20
2018-03-23T16:04:36.779Z,9.20
2018-03-23T16:07:05.797Z,9.00
2018-03-23T16:09:33.981Z,9.00
2018-03-23T16:12:02.178Z,9.10
2018-03-23T16:14:30.396Z,9.10
2018-03-23T16:16:59.356Z,9.00
2018-03-23T16:19:27.696Z,9.00
2018-03-23T16:21:55.964Z,9.00
2018-03-23T16:24:24.225Z,9.00
2018-03-23T16:26:52.582Z,9.00
2018-03-23T16:29:21.567Z,9.00
2018-03-23T16:31:49.802Z,9.00
2018-03-23T16:34:18.124Z,9.00
2018-03-23T16:36:46.370Z,9.00
2018-03-23T16:39:14.604Z,9.00
2018-03-23T16:41:42.864Z,9.10
2018-03-23T16:44:11.204Z,9.00
2018-03-23T16:46:39.537Z,9.00
2018-03-23T16:49:07.802Z,8.90
2018-03-23T16:51:36.276Z,8.90
2018-03-23T16:54:05.307Z,8.80
2018-03-23T16:56:33.549Z,8.80
2018-03-23T16:59:01.774Z,8.80
2018-03-23T17:01:30.092Z,8.80
2018-03-23T17:03:58.373Z,8.70
2018-03-23T17:06:26.564Z,8.70
2018-03-23T17:08:54.779Z,8.70
2018-03-23T17:11:23.026Z,8.80
2018-03-23T17:13:51.230Z,8.80
2018-03-23T17:16:19.793Z,8.80
2018-03-23T17:18:48.037Z,8.70
2018-03-23T17:21:16.213Z,8.70
2018-03-23T17:23:44.410Z,8.80
2018-03-23T17:26:12.623Z,8.80
2018-03-23T17:28:41.609Z,8.80
2018-03-23T17:31:09.902Z,8.80
2018-03-23T17:33:38.881Z,8.80
2018-03-23T17:36:07.868Z,8.70
2018-03-23T17:38:36.883Z,8.70
2018-03-23T17:41:05.697Z,8.70
2018-03-23T17:43:33.880Z,8.70
2018-03-23T17:46:02.124Z,8.70
2018-03-23T17:48:30.370Z,8.70
2018-03-23T17:50:59.346Z,8.70
2018-03-23T17:53:27.676Z,8.70
2018-03-23T17:55:55.911Z,8.80
2018-03-23T17:58:24.209Z,8.80
2018-03-23T18:00:53.309Z,8.80
2018-03-23T18:03:21.514Z,8.80
2018-03-23T18:05:49.807Z,8.80
2018-03-23T18:08:18.093Z,8.70
2018-03-23T18:10:46.338Z,8.80
2018-03-23T18:13:14.534Z,8.80
2018-03-23T18:15:42.863Z,8.70
2018-03-23T18:18:11.072Z,8.70
2018-03-23T18:20:39.245Z,8.70
2018-03-23T18:23:07.493Z,8.70
2018-03-23T18:25:35.803Z,8.60
2018-03-23T18:28:03.964Z,8.70
2018-03-23T18:30:32.145Z,8.70
2018-03-23T18:33:00.448Z,8.60
2018-03-23T18:35:28.650Z,8.50
2018-03-23T18:37:56.855Z,8.50
2018-03-23T18:40:25.122Z,8.60
2018-03-23T18:42:53.492Z,8.60
2018-03-23T18:45:21.731Z,8.60
2018-03-23T18:47:50.777Z,8.70
2018-03-23T18:50:19.077Z,8.60
2018-03-23T18:52:47.379Z,8.60
2018-03-23T18:55:16.424Z,8.50
2018-03-23T18:57:44.624Z,8.50
2018-03-23T19:00:13.509Z,8.40
2018-03-23T19:02:41.786Z,8.40
2018-03-23T19:05:09.996Z,8.30
2018-03-23T19:07:38.987Z,8.30
2018-03-23T19:10:07.307Z,8.30
2018-03-23T19:12:35.573Z,8.20
2018-03-23T19:15:03.787Z,8.20
2018-03-23T19:17:31.986Z,8.20
2018-03-23T19:20:00.392Z,8.20
2018-03-23T19:22:28.580Z,8.10
2018-03-23T19:24:56.896Z,8.20
2018-03-23T19:27:25.121Z,8.10
2018-03-23T19:29:53.385Z,8.20
2018-03-23T19:32:21.591Z,8.10
2018-03-23T19:34:49.820Z,8.10
2018-03-23T19:37:18.800Z,8.20
2018-03-23T19:39:46.989Z,8.10
2018-03-23T19:42:15.205Z,8.20
2018-03-23T19:44:44.244Z,8.10
2018-03-23T19:47:13.218Z,8.10
2018-03-23T19:49:41.469Z,8.10
2018-03-23T19:52:09.650Z,8.10
2018-03-23T19:54:37.850Z,8.10
2018-03-23T19:57:06.852Z,8.00
2018-03-23T19:59:35.139Z,8.00
2018-03-23T20:02:03.368Z,8.00
2018-03-23T20:04:31.641Z,8.00
2018-03-23T20:06:59.887Z,8.00
2018-03-23T20:09:28.068Z,8.00
2018-03-23T20:11:56.264Z,8.00
2018-03-23T20:14:24.515Z,8.00
2018-03-23T20:16:52.815Z,8.00
2018-03-23T20:19:21.578Z,8.00
2018-03-23T20:21:50.136Z,8.00
2018-03-23T20:24:26.063Z,7.90
2018-03-23T20:27:03.818Z,8.00
2018-03-23T20:29:36.221Z,7.90
2018-03-23T20:32:13.722Z,7.80
2018-03-23T20:34:44.647Z,7.80
2018-03-23T20:37:13.664Z,7.80
2018-03-23T20:39:42.775Z,7.80
2018-03-23T20:42:12.164Z,7.70
2018-03-23T20:44:40.976Z,7.70
2018-03-23T20:47:10.007Z,7.70
2018-03-23T20:49:43.103Z,7.70
2018-03-23T20:52:12.312Z,7.70
2018-03-23T20:54:41.402Z,7.70
2018-03-23T20:57:09.649Z,7.60
2018-03-23T20:59:37.838Z,7.60
2018-03-23T21:02:06.111Z,7.70
2018-03-23T21:04:35.127Z,7.60
2018-03-23T21:07:04.150Z,7.60
2018-03-23T21:09:32.402Z,7.60
2018-03-23T21:12:01.353Z,7.60
2018-03-23T21:14:29.542Z,7.60
2018-03-23T21:16:57.849Z,7.50
2018-03-23T21:19:26.050Z,7.40
2018-03-23T21:21:54.246Z,7.40
2018-03-23T21:24:22.454Z,7.30
2018-03-23T21:26:50.693Z,7.30
2018-03-23T21:29:18.898Z,7.30
2018-03-23T21:31:47.883Z,7.40
2018-03-23T21:34:16.081Z,7.40
2018-03-23T21:36:44.335Z,7.50
2018-03-23T21:39:13.421Z,7.50
2018-03-23T21:41:41.587Z,7.40
2018-03-23T21:44:09.770Z,7.50
2018-03-23T21:46:37.963Z,7.50
2018-03-23T21:49:06.969Z,7.50
2018-03-23T21:51:35.248Z,7.50
2018-03-23T21:54:03.453Z,7.60
2018-03-23T21:56:31.731Z,7.60
2018-03-23T21:58:59.951Z,7.60
2018-03-23T22:01:29.003Z,7.50
2018-03-23T22:03:57.361Z,7.50
2018-03-23T22:06:25.570Z,7.50
2018-03-23T22:08:53.745Z,7.50
2018-03-23T22:11:21.947Z,7.60
2018-03-23T22:13:50.951Z,7.60
2018-03-23T22:16:19.200Z,7.60
2018-03-23T22:18:47.463Z,7.60
2018-03-23T22:21:15.721Z,7.60
2018-03-23T22:23:43.976Z,7.60
2018-03-23T22:26:12.163Z,7.60
2018-03-23T22:28:40.379Z,7.60
2018-03-23T22:31:08.733Z,7.50
2018-03-23T22:33:36.914Z,7.60
2018-03-23T22:36:05.129Z,7.50
2018-03-23T22:38:33.460Z,7.60
2018-03-23T22:41:01.699Z,7.60
2018-03-23T22:43:29.955Z,7.60
2018-03-23T22:45:58.199Z,7.70
2018-03-23T22:48:27.175Z,7.60
2018-03-23T22:50:55.608Z,7.60
2018-03-23T22:53:23.909Z,7.60
2018-03-23T22:55:52.182Z,7.60
2018-03-23T22:58:20.461Z,7.50
2018-03-23T23:00:48.664Z,7.50
2018-03-23T23:03:17.007Z,7.50
2018-03-23T23:05:45.216Z,7.40
2018-03-23T23:08:13.391Z,7.40
2018-03-23T23:10:41.686Z,7.30
2018-03-23T23:13:09.903Z,7.30
2018-03-23T23:15:38.202Z,7.30
2018-03-23T23:18:06.434Z,7.30
2018-03-23T23:20:34.598Z,7.30
2018-03-23T23:23:02.765Z,7.30
2018-03-23T23:25:31.091Z,7.30
2018-03-23T23:27:59.331Z,7.30
2018-03-23T23:30:27.536Z,7.20
2018-03-23T23:32:55.847Z,7.20
2018-03-23T23:35:24.803Z,7.20
2018-03-23T23:37:53.055Z,7.20
2018-03-23T23:40:21.312Z,7.20
2018-03-23T23:42:49.704Z,7.10
2018-03-23T23:45:17.923Z,7.10
2018-03-23T23:47:46.200Z,7.10
2018-03-23T23:50:14.454Z,7.20
2018-03-23T23:52:42.641Z,7.10
2018-03-23T23:55:10.911Z,7.10
2018-03-23T23:57:39.188Z,7.10
